Camborne, United Kingdom
Current Conditions -  °F | °C
As of 4:50 PM on Thursday 27 Nov 2014 (Local Time) from EGDR Reporting Station
Scattered Clouds Scattered Clouds  
Wind Chill: 10°   Ceiling: Unl
Heat Index: 10°   Visibility: 6mi
Dew Point:   Wind: 16mph
Humidity: 82%   Direction: 110°ESE
Pressure: 29.38"   Gusts: NA
Location:  50.21°N, 5.3°W
Report Text: EGDR 271650Z 11014KT 9999 FEW014 SCT050 10/07 Q0995 BLU TEMPO SCT020 WHT
Loading
Personal Weather Stations






























Interactive Weather Map New forecast layout! Learn more

10-Day Weather Forecast

Advertisements
Track Severe Weather on mobile